sensor_id;sensor_type;location;lat;lon;timestamp;P1;durP1;ratioP1;P2;durP2;ratioP2
29916;SDS011;16786;49.466;11.068;2022-07-29T00:01:40;7.53;;;5.80;;
29916;SDS011;16786;49.466;11.068;2022-07-29T00:04:08;9.25;;;5.70;;
29916;SDS011;16786;49.466;11.068;2022-07-29T00:06:36;6.20;;;5.60;;
29916;SDS011;16786;49.466;11.068;2022-07-29T00:09:03;6.50;;;5.43;;
29916;SDS011;16786;49.466;11.068;2022-07-29T00:11:30;9.20;;;5.70;;
29916;SDS011;16786;49.466;11.068;2022-07-29T00:13:58;7.15;;;6.10;;
29916;SDS011;16786;49.466;11.068;2022-07-29T00:16:25;9.70;;;5.57;;
29916;SDS011;16786;49.466;11.068;2022-07-29T00:18:52;8.57;;;5.60;;
29916;SDS011;16786;49.466;11.068;2022-07-29T00:21:20;8.77;;;5.82;;
29916;SDS011;16786;49.466;11.068;2022-07-29T00:23:47;6.18;;;5.57;;
29916;SDS011;16786;49.466;11.068;2022-07-29T00:26:14;9.30;;;5.55;;
29916;SDS011;16786;49.466;11.068;2022-07-29T00:28:42;6.45;;;5.85;;
29916;SDS011;16786;49.466;11.068;2022-07-29T00:31:09;8.65;;;5.57;;
29916;SDS011;16786;49.466;11.068;2022-07-29T00:33:37;8.35;;;5.70;;
29916;SDS011;16786;49.466;11.068;2022-07-29T00:36:04;9.45;;;5.50;;
29916;SDS011;16786;49.466;11.068;2022-07-29T00:38:32;8.35;;;5.28;;
29916;SDS011;16786;49.466;11.068;2022-07-29T00:40:59;7.63;;;5.70;;
29916;SDS011;16786;49.466;11.068;2022-07-29T00:43:26;6.25;;;5.65;;
29916;SDS011;16786;49.466;11.068;2022-07-29T00:45:54;6.93;;;5.70;;
29916;SDS011;16786;49.466;11.068;2022-07-29T00:48:21;8.90;;;5.43;;
29916;SDS011;16786;49.466;11.068;2022-07-29T00:50:49;8.70;;;5.03;;
29916;SDS011;16786;49.466;11.068;2022-07-29T00:53:16;6.50;;;5.28;;
29916;SDS011;16786;49.466;11.068;2022-07-29T00:55:44;7.85;;;5.82;;
29916;SDS011;16786;49.466;11.068;2022-07-29T00:58:12;10.45;;;5.80;;
29916;SDS011;16786;49.466;11.068;2022-07-29T01:00:41;8.77;;;5.40;;
29916;SDS011;16786;49.466;11.068;2022-07-29T01:03:11;7.35;;;5.50;;
29916;SDS011;16786;49.466;11.068;2022-07-29T01:05:38;6.85;;;5.55;;
29916;SDS011;16786;49.466;11.068;2022-07-29T01:08:17;9.93;;;5.55;;
29916;SDS011;16786;49.466;11.068;2022-07-29T01:10:45;7.25;;;5.82;;
29916;SDS011;16786;49.466;11.068;2022-07-29T01:13:14;6.72;;;5.30;;
29916;SDS011;16786;49.466;11.068;2022-07-29T01:15:54;7.38;;;5.70;;
29916;SDS011;16786;49.466;11.068;2022-07-29T01:18:34;8.05;;;5.25;;
29916;SDS011;16786;49.466;11.068;2022-07-29T01:21:35;6.38;;;5.57;;
29916;SDS011;16786;49.466;11.068;2022-07-29T01:24:33;6.68;;;5.63;;
29916;SDS011;16786;49.466;11.068;2022-07-29T01:29:56;6.90;;;5.72;;
29916;SDS011;16786;49.466;11.068;2022-07-29T01:32:26;7.45;;;5.50;;
29916;SDS011;16786;49.466;11.068;2022-07-29T01:37:50;9.00;;;5.70;;
29916;SDS011;16786;49.466;11.068;2022-07-29T01:40:34;6.38;;;5.78;;
29916;SDS011;16786;49.466;11.068;2022-07-29T01:43:11;9.57;;;5.60;;
29916;SDS011;16786;49.466;11.068;2022-07-29T01:45:48;9.07;;;5.45;;
29916;SDS011;16786;49.466;11.068;2022-07-29T01:48:29;9.60;;;5.50;;
29916;SDS011;16786;49.466;11.068;2022-07-29T01:56:26;10.43;;;5.28;;
29916;SDS011;16786;49.466;11.068;2022-07-29T01:58:57;11.55;;;5.45;;
29916;SDS011;16786;49.466;11.068;2022-07-29T02:01:26;7.38;;;5.55;;
29916;SDS011;16786;49.466;11.068;2022-07-29T02:03:56;8.52;;;5.30;;
29916;SDS011;16786;49.466;11.068;2022-07-29T02:06:24;7.68;;;5.32;;
29916;SDS011;16786;49.466;11.068;2022-07-29T02:08:53;8.20;;;5.55;;
29916;SDS011;16786;49.466;11.068;2022-07-29T02:11:22;7.05;;;5.30;;
29916;SDS011;16786;49.466;11.068;2022-07-29T02:13:51;6.43;;;5.45;;
29916;SDS011;16786;49.466;11.068;2022-07-29T02:16:21;8.57;;;5.93;;
29916;SDS011;16786;49.466;11.068;2022-07-29T02:18:50;6.20;;;5.53;;
29916;SDS011;16786;49.466;11.068;2022-07-29T02:21:19;7.05;;;5.43;;
29916;SDS011;16786;49.466;11.068;2022-07-29T02:23:51;8.27;;;5.40;;
29916;SDS011;16786;49.466;11.068;2022-07-29T02:26:20;7.03;;;5.78;;
29916;SDS011;16786;49.466;11.068;2022-07-29T02:28:50;5.85;;;5.25;;
29916;SDS011;16786;49.466;11.068;2022-07-29T02:31:21;6.88;;;5.50;;
29916;SDS011;16786;49.466;11.068;2022-07-29T02:36:21;8.48;;;5.55;;
29916;SDS011;16786;49.466;11.068;2022-07-29T02:38:50;6.80;;;5.45;;
29916;SDS011;16786;49.466;11.068;2022-07-29T02:41:28;6.63;;;5.53;;
29916;SDS011;16786;49.466;11.068;2022-07-29T02:44:03;6.07;;;5.50;;
29916;SDS011;16786;49.466;11.068;2022-07-29T02:46:36;6.35;;;5.63;;
29916;SDS011;16786;49.466;11.068;2022-07-29T02:51:52;6.20;;;5.65;;
29916;SDS011;16786;49.466;11.068;2022-07-29T02:54:37;8.73;;;5.85;;
29916;SDS011;16786;49.466;11.068;2022-07-29T03:00:21;11.18;;;6.15;;
29916;SDS011;16786;49.466;11.068;2022-07-29T03:02:54;8.73;;;5.88;;
29916;SDS011;16786;49.466;11.068;2022-07-29T03:05:25;6.43;;;5.57;;
29916;SDS011;16786;49.466;11.068;2022-07-29T03:07:57;7.50;;;5.50;;
29916;SDS011;16786;49.466;11.068;2022-07-29T03:10:28;7.95;;;5.72;;
29916;SDS011;16786;49.466;11.068;2022-07-29T03:12:55;11.10;;;5.90;;
29916;SDS011;16786;49.466;11.068;2022-07-29T03:15:24;6.47;;;5.60;;
29916;SDS011;16786;49.466;11.068;2022-07-29T03:17:52;7.35;;;6.10;;
29916;SDS011;16786;49.466;11.068;2022-07-29T03:20:22;6.25;;;5.68;;
29916;SDS011;16786;49.466;11.068;2022-07-29T03:22:49;8.13;;;6.05;;
29916;SDS011;16786;49.466;11.068;2022-07-29T03:25:17;6.65;;;5.88;;
29916;SDS011;16786;49.466;11.068;2022-07-29T03:27:46;8.32;;;5.53;;
29916;SDS011;16786;49.466;11.068;2022-07-29T03:30:15;8.48;;;5.75;;
29916;SDS011;16786;49.466;11.068;2022-07-29T03:32:48;11.50;;;6.38;;
29916;SDS011;16786;49.466;11.068;2022-07-29T03:35:20;9.13;;;6.20;;
29916;SDS011;16786;49.466;11.068;2022-07-29T03:37:48;6.22;;;5.55;;
29916;SDS011;16786;49.466;11.068;2022-07-29T03:40:22;6.53;;;5.88;;
29916;SDS011;16786;49.466;11.068;2022-07-29T03:43:00;7.85;;;6.05;;
29916;SDS011;16786;49.466;11.068;2022-07-29T03:45:29;8.68;;;5.85;;
29916;SDS011;16786;49.466;11.068;2022-07-29T03:47:59;7.28;;;6.00;;
29916;SDS011;16786;49.466;11.068;2022-07-29T03:50:32;7.45;;;5.78;;
29916;SDS011;16786;49.466;11.068;2022-07-29T03:53:00;9.02;;;6.07;;
29916;SDS011;16786;49.466;11.068;2022-07-29T03:55:29;6.88;;;5.53;;
29916;SDS011;16786;49.466;11.068;2022-07-29T03:58:02;10.05;;;6.07;;
29916;SDS011;16786;49.466;11.068;2022-07-29T04:00:30;7.03;;;5.40;;
29916;SDS011;16786;49.466;11.068;2022-07-29T04:03:00;7.13;;;6.13;;
29916;SDS011;16786;49.466;11.068;2022-07-29T04:05:36;6.50;;;5.80;;
29916;SDS011;16786;49.466;11.068;2022-07-29T04:08:03;7.25;;;5.78;;
29916;SDS011;16786;49.466;11.068;2022-07-29T04:10:31;6.80;;;6.20;;
29916;SDS011;16786;49.466;11.068;2022-07-29T04:13:01;6.00;;;5.50;;
29916;SDS011;16786;49.466;11.068;2022-07-29T04:15:28;7.72;;;5.97;;
29916;SDS011;16786;49.466;11.068;2022-07-29T04:17:57;7.13;;;6.05;;
29916;SDS011;16786;49.466;11.068;2022-07-29T04:20:25;6.53;;;5.93;;
29916;SDS011;16786;49.466;11.068;2022-07-29T04:22:53;8.65;;;5.70;;
29916;SDS011;16786;49.466;11.068;2022-07-29T04:25:20;8.32;;;5.57;;
29916;SDS011;16786;49.466;11.068;2022-07-29T04:27:48;8.60;;;6.35;;
29916;SDS011;16786;49.466;11.068;2022-07-29T04:30:27;8.68;;;6.22;;
29916;SDS011;16786;49.466;11.068;2022-07-29T04:32:56;7.80;;;6.00;;
29916;SDS011;16786;49.466;11.068;2022-07-29T04:35:24;9.98;;;6.55;;
29916;SDS011;16786;49.466;11.068;2022-07-29T04:37:51;6.70;;;6.10;;
29916;SDS011;16786;49.466;11.068;2022-07-29T04:40:18;7.25;;;6.50;;
29916;SDS011;16786;49.466;11.068;2022-07-29T04:42:46;7.22;;;6.35;;
29916;SDS011;16786;49.466;11.068;2022-07-29T04:45:15;8.93;;;5.95;;
29916;SDS011;16786;49.466;11.068;2022-07-29T04:47:48;7.85;;;6.20;;
29916;SDS011;16786;49.466;11.068;2022-07-29T04:50:16;10.38;;;6.32;;
29916;SDS011;16786;49.466;11.068;2022-07-29T04:52:43;6.70;;;6.07;;
29916;SDS011;16786;49.466;11.068;2022-07-29T04:55:10;6.70;;;6.00;;
29916;SDS011;16786;49.466;11.068;2022-07-29T04:57:38;7.20;;;5.90;;
29916;SDS011;16786;49.466;11.068;2022-07-29T05:00:06;6.75;;;5.97;;
29916;SDS011;16786;49.466;11.068;2022-07-29T05:02:34;6.68;;;6.00;;
29916;SDS011;16786;49.466;11.068;2022-07-29T05:05:01;7.43;;;6.25;;
29916;SDS011;16786;49.466;11.068;2022-07-29T05:07:28;12.00;;;6.63;;
29916;SDS011;16786;49.466;11.068;2022-07-29T05:09:56;7.13;;;6.43;;
29916;SDS011;16786;49.466;11.068;2022-07-29T05:12:24;8.10;;;6.88;;
29916;SDS011;16786;49.466;11.068;2022-07-29T05:14:51;8.82;;;6.80;;
29916;SDS011;16786;49.466;11.068;2022-07-29T05:17:19;8.25;;;6.28;;
29916;SDS011;16786;49.466;11.068;2022-07-29T05:19:47;10.88;;;6.53;;
29916;SDS011;16786;49.466;11.068;2022-07-29T05:22:14;10.75;;;7.10;;
29916;SDS011;16786;49.466;11.068;2022-07-29T05:24:41;13.68;;;6.35;;
29916;SDS011;16786;49.466;11.068;2022-07-29T05:27:08;10.45;;;6.43;;
29916;SDS011;16786;49.466;11.068;2022-07-29T05:29:36;9.20;;;6.82;;
29916;SDS011;16786;49.466;11.068;2022-07-29T05:32:11;7.55;;;6.43;;
29916;SDS011;16786;49.466;11.068;2022-07-29T05:34:40;7.30;;;6.60;;
29916;SDS011;16786;49.466;11.068;2022-07-29T05:37:17;7.00;;;6.10;;
29916;SDS011;16786;49.466;11.068;2022-07-29T05:39:48;14.57;;;6.80;;
29916;SDS011;16786;49.466;11.068;2022-07-29T05:42:23;9.25;;;7.00;;
29916;SDS011;16786;49.466;11.068;2022-07-29T05:44:51;8.82;;;7.13;;
29916;SDS011;16786;49.466;11.068;2022-07-29T05:47:19;7.65;;;6.93;;
29916;SDS011;16786;49.466;11.068;2022-07-29T05:49:46;10.60;;;7.65;;
29916;SDS011;16786;49.466;11.068;2022-07-29T05:52:13;9.10;;;6.88;;
29916;SDS011;16786;49.466;11.068;2022-07-29T05:54:41;9.55;;;7.45;;
29916;SDS011;16786;49.466;11.068;2022-07-29T05:57:08;11.50;;;6.72;;
29916;SDS011;16786;49.466;11.068;2022-07-29T05:59:45;8.15;;;7.30;;
29916;SDS011;16786;49.466;11.068;2022-07-29T06:02:13;9.10;;;7.07;;
29916;SDS011;16786;49.466;11.068;2022-07-29T06:04:41;7.78;;;7.00;;
29916;SDS011;16786;49.466;11.068;2022-07-29T06:07:08;9.18;;;7.15;;
29916;SDS011;16786;49.466;11.068;2022-07-29T06:09:36;9.93;;;7.80;;
29916;SDS011;16786;49.466;11.068;2022-07-29T06:12:03;15.30;;;7.40;;
29916;SDS011;16786;49.466;11.068;2022-07-29T06:14:31;10.73;;;7.40;;
29916;SDS011;16786;49.466;11.068;2022-07-29T06:16:59;8.82;;;7.47;;
29916;SDS011;16786;49.466;11.068;2022-07-29T06:19:26;8.35;;;7.40;;
29916;SDS011;16786;49.466;11.068;2022-07-29T06:21:54;7.95;;;7.25;;
29916;SDS011;16786;49.466;11.068;2022-07-29T06:24:21;10.45;;;7.35;;
29916;SDS011;16786;49.466;11.068;2022-07-29T06:26:48;11.00;;;7.47;;
29916;SDS011;16786;49.466;11.068;2022-07-29T06:29:15;8.88;;;7.30;;
29916;SDS011;16786;49.466;11.068;2022-07-29T06:31:43;9.20;;;7.93;;
29916;SDS011;16786;49.466;11.068;2022-07-29T06:34:10;8.82;;;7.68;;
29916;SDS011;16786;49.466;11.068;2022-07-29T06:36:39;10.80;;;7.88;;
29916;SDS011;16786;49.466;11.068;2022-07-29T06:39:07;12.45;;;7.63;;
29916;SDS011;16786;49.466;11.068;2022-07-29T06:41:37;8.45;;;7.60;;
29916;SDS011;16786;49.466;11.068;2022-07-29T06:44:08;10.18;;;7.07;;
29916;SDS011;16786;49.466;11.068;2022-07-29T06:46:36;11.77;;;7.57;;
29916;SDS011;16786;49.466;11.068;2022-07-29T06:49:03;9.43;;;7.50;;
29916;SDS011;16786;49.466;11.068;2022-07-29T06:51:31;11.07;;;7.85;;
29916;SDS011;16786;49.466;11.068;2022-07-29T06:53:59;11.10;;;7.72;;
29916;SDS011;16786;49.466;11.068;2022-07-29T06:56:29;8.43;;;7.22;;
29916;SDS011;16786;49.466;11.068;2022-07-29T06:59:05;8.50;;;7.63;;
29916;SDS011;16786;49.466;11.068;2022-07-29T07:01:34;8.32;;;7.43;;
29916;SDS011;16786;49.466;11.068;2022-07-29T07:04:02;8.90;;;7.88;;
29916;SDS011;16786;49.466;11.068;2022-07-29T07:06:30;15.98;;;10.65;;
29916;SDS011;16786;49.466;11.068;2022-07-29T07:08:57;14.65;;;9.63;;
29916;SDS011;16786;49.466;11.068;2022-07-29T07:11:24;12.02;;;9.95;;
29916;SDS011;16786;49.466;11.068;2022-07-29T07:13:52;13.95;;;8.90;;
29916;SDS011;16786;49.466;11.068;2022-07-29T07:16:25;12.90;;;9.30;;
29916;SDS011;16786;49.466;11.068;2022-07-29T07:18:53;10.35;;;8.10;;
29916;SDS011;16786;49.466;11.068;2022-07-29T07:21:21;10.25;;;8.55;;
29916;SDS011;16786;49.466;11.068;2022-07-29T07:23:49;8.63;;;7.90;;
29916;SDS011;16786;49.466;11.068;2022-07-29T07:26:16;9.30;;;7.40;;
29916;SDS011;16786;49.466;11.068;2022-07-29T07:28:44;11.38;;;7.57;;
29916;SDS011;16786;49.466;11.068;2022-07-29T07:31:11;10.02;;;7.53;;
29916;SDS011;16786;49.466;11.068;2022-07-29T07:33:39;9.45;;;7.90;;
29916;SDS011;16786;49.466;11.068;2022-07-29T07:36:06;10.27;;;8.05;;
29916;SDS011;16786;49.466;11.068;2022-07-29T07:38:34;9.55;;;8.05;;
29916;SDS011;16786;49.466;11.068;2022-07-29T07:41:02;12.85;;;7.60;;
29916;SDS011;16786;49.466;11.068;2022-07-29T07:43:30;11.02;;;7.90;;
29916;SDS011;16786;49.466;11.068;2022-07-29T07:45:57;9.80;;;7.72;;
29916;SDS011;16786;49.466;11.068;2022-07-29T07:48:24;11.07;;;7.85;;
29916;SDS011;16786;49.466;11.068;2022-07-29T07:50:52;8.30;;;7.47;;
29916;SDS011;16786;49.466;11.068;2022-07-29T07:53:20;8.35;;;7.53;;
29916;SDS011;16786;49.466;11.068;2022-07-29T07:55:48;8.98;;;8.02;;
29916;SDS011;16786;49.466;11.068;2022-07-29T07:58:36;8.20;;;7.38;;
29916;SDS011;16786;49.466;11.068;2022-07-29T08:01:03;10.75;;;7.60;;
29916;SDS011;16786;49.466;11.068;2022-07-29T08:03:30;10.82;;;7.40;;
29916;SDS011;16786;49.466;11.068;2022-07-29T08:05:59;9.43;;;7.63;;
29916;SDS011;16786;49.466;11.068;2022-07-29T08:08:27;9.45;;;7.88;;
29916;SDS011;16786;49.466;11.068;2022-07-29T08:10:55;7.70;;;6.88;;
29916;SDS011;16786;49.466;11.068;2022-07-29T08:13:24;9.77;;;7.40;;
29916;SDS011;16786;49.466;11.068;2022-07-29T08:15:55;9.48;;;7.18;;
29916;SDS011;16786;49.466;11.068;2022-07-29T08:18:39;13.38;;;7.50;;
29916;SDS011;16786;49.466;11.068;2022-07-29T08:21:07;8.02;;;7.22;;
29916;SDS011;16786;49.466;11.068;2022-07-29T08:23:35;11.27;;;7.30;;
29916;SDS011;16786;49.466;11.068;2022-07-29T08:26:15;9.38;;;7.50;;
29916;SDS011;16786;49.466;11.068;2022-07-29T08:28:43;9.43;;;7.47;;
29916;SDS011;16786;49.466;11.068;2022-07-29T08:31:13;9.50;;;7.40;;
29916;SDS011;16786;49.466;11.068;2022-07-29T08:33:42;10.70;;;7.97;;
29916;SDS011;16786;49.466;11.068;2022-07-29T08:36:09;11.35;;;8.45;;
29916;SDS011;16786;49.466;11.068;2022-07-29T08:38:37;11.68;;;8.35;;
29916;SDS011;16786;49.466;11.068;2022-07-29T08:41:04;11.77;;;7.63;;
29916;SDS011;16786;49.466;11.068;2022-07-29T08:43:32;8.40;;;7.60;;
29916;SDS011;16786;49.466;11.068;2022-07-29T08:46:01;9.80;;;7.60;;
29916;SDS011;16786;49.466;11.068;2022-07-29T08:48:29;8.63;;;7.30;;
29916;SDS011;16786;49.466;11.068;2022-07-29T08:50:56;10.00;;;7.47;;
29916;SDS011;16786;49.466;11.068;2022-07-29T08:53:25;10.23;;;7.47;;
29916;SDS011;16786;49.466;11.068;2022-07-29T08:55:54;12.10;;;7.30;;
29916;SDS011;16786;49.466;11.068;2022-07-29T08:58:22;9.60;;;7.80;;
29916;SDS011;16786;49.466;11.068;2022-07-29T09:00:54;7.65;;;6.95;;
29916;SDS011;16786;49.466;11.068;2022-07-29T09:03:24;8.07;;;7.32;;
29916;SDS011;16786;49.466;11.068;2022-07-29T09:05:54;10.70;;;7.45;;
29916;SDS011;16786;49.466;11.068;2022-07-29T09:08:21;9.13;;;7.53;;
29916;SDS011;16786;49.466;11.068;2022-07-29T09:10:49;8.25;;;7.45;;
29916;SDS011;16786;49.466;11.068;2022-07-29T09:13:17;7.93;;;7.13;;
29916;SDS011;16786;49.466;11.068;2022-07-29T09:15:45;8.70;;;7.78;;
29916;SDS011;16786;49.466;11.068;2022-07-29T09:18:12;11.98;;;7.90;;
29916;SDS011;16786;49.466;11.068;2022-07-29T09:21:00;7.93;;;7.20;;
29916;SDS011;16786;49.466;11.068;2022-07-29T09:24:06;8.70;;;7.70;;
29916;SDS011;16786;49.466;11.068;2022-07-29T09:26:44;9.05;;;7.55;;
29916;SDS011;16786;49.466;11.068;2022-07-29T09:29:15;8.95;;;7.90;;
29916;SDS011;16786;49.466;11.068;2022-07-29T09:31:45;8.90;;;7.38;;
29916;SDS011;16786;49.466;11.068;2022-07-29T09:34:15;7.72;;;7.03;;
29916;SDS011;16786;49.466;11.068;2022-07-29T09:36:48;10.98;;;7.05;;
29916;SDS011;16786;49.466;11.068;2022-07-29T09:39:26;8.65;;;7.03;;
29916;SDS011;16786;49.466;11.068;2022-07-29T09:41:59;11.38;;;7.03;;
29916;SDS011;16786;49.466;11.068;2022-07-29T09:44:41;7.77;;;7.00;;
29916;SDS011;16786;49.466;11.068;2022-07-29T09:49:56;7.05;;;6.45;;
29916;SDS011;16786;49.466;11.068;2022-07-29T09:52:26;8.40;;;7.15;;
29916;SDS011;16786;49.466;11.068;2022-07-29T09:55:05;7.90;;;7.10;;
29916;SDS011;16786;49.466;11.068;2022-07-29T09:57:34;7.70;;;6.82;;
29916;SDS011;16786;49.466;11.068;2022-07-29T10:00:05;7.88;;;7.07;;
29916;SDS011;16786;49.466;11.068;2022-07-29T10:02:38;7.90;;;7.10;;
29916;SDS011;16786;49.466;11.068;2022-07-29T10:05:21;8.88;;;7.38;;
29916;SDS011;16786;49.466;11.068;2022-07-29T10:07:52;7.75;;;6.85;;
29916;SDS011;16786;49.466;11.068;2022-07-29T10:12:56;9.93;;;7.25;;
29916;SDS011;16786;49.466;11.068;2022-07-29T10:15:36;7.07;;;6.40;;
29916;SDS011;16786;49.466;11.068;2022-07-29T10:18:08;9.05;;;7.22;;
29916;SDS011;16786;49.466;11.068;2022-07-29T10:20:36;8.35;;;6.32;;
29916;SDS011;16786;49.466;11.068;2022-07-29T10:23:04;12.25;;;7.50;;
29916;SDS011;16786;49.466;11.068;2022-07-29T10:25:32;10.55;;;7.47;;
29916;SDS011;16786;49.466;11.068;2022-07-29T10:27:59;8.20;;;7.22;;
29916;SDS011;16786;49.466;11.068;2022-07-29T10:30:27;8.65;;;6.88;;
29916;SDS011;16786;49.466;11.068;2022-07-29T10:32:58;11.15;;;7.45;;
29916;SDS011;16786;49.466;11.068;2022-07-29T10:38:45;9.30;;;7.35;;
29916;SDS011;16786;49.466;11.068;2022-07-29T10:44:45;8.77;;;7.43;;
29916;SDS011;16786;49.466;11.068;2022-07-29T10:47:19;8.02;;;7.32;;
29916;SDS011;16786;49.466;11.068;2022-07-29T10:49:58;8.18;;;7.03;;
29916;SDS011;16786;49.466;11.068;2022-07-29T10:55:36;9.55;;;7.88;;
29916;SDS011;16786;49.466;11.068;2022-07-29T10:58:10;8.63;;;7.07;;
29916;SDS011;16786;49.466;11.068;2022-07-29T11:00:43;7.68;;;6.90;;
29916;SDS011;16786;49.466;11.068;2022-07-29T11:06:15;8.77;;;7.40;;
29916;SDS011;16786;49.466;11.068;2022-07-29T11:12:01;9.70;;;7.45;;
29916;SDS011;16786;49.466;11.068;2022-07-29T11:17:18;8.73;;;7.78;;
29916;SDS011;16786;49.466;11.068;2022-07-29T11:19:47;9.38;;;7.82;;
29916;SDS011;16786;49.466;11.068;2022-07-29T11:22:33;8.50;;;7.70;;
29916;SDS011;16786;49.466;11.068;2022-07-29T11:25:35;8.63;;;7.93;;
29916;SDS011;16786;49.466;11.068;2022-07-29T11:28:18;8.43;;;7.63;;
29916;SDS011;16786;49.466;11.068;2022-07-29T11:30:53;8.77;;;7.85;;
29916;SDS011;16786;49.466;11.068;2022-07-29T11:33:41;10.77;;;8.00;;
29916;SDS011;16786;49.466;11.068;2022-07-29T11:36:30;8.40;;;7.60;;
29916;SDS011;16786;49.466;11.068;2022-07-29T11:45:00;8.95;;;7.80;;
29916;SDS011;16786;49.466;11.068;2022-07-29T11:47:49;9.98;;;8.02;;
29916;SDS011;16786;49.466;11.068;2022-07-29T11:53:02;8.18;;;7.38;;
29916;SDS011;16786;49.466;11.068;2022-07-29T11:55:40;7.80;;;7.20;;
29916;SDS011;16786;49.466;11.068;2022-07-29T11:58:28;9.70;;;7.80;;
29916;SDS011;16786;49.466;11.068;2022-07-29T12:00:55;8.93;;;8.13;;
29916;SDS011;16786;49.466;11.068;2022-07-29T12:03:30;9.32;;;8.00;;
29916;SDS011;16786;49.466;11.068;2022-07-29T12:06:18;11.80;;;7.43;;
29916;SDS011;16786;49.466;11.068;2022-07-29T12:08:46;9.40;;;8.05;;
29916;SDS011;16786;49.466;11.068;2022-07-29T12:11:17;8.57;;;7.35;;
29916;SDS011;16786;49.466;11.068;2022-07-29T12:13:48;8.32;;;7.53;;
29916;SDS011;16786;49.466;11.068;2022-07-29T12:16:16;8.25;;;7.55;;
29916;SDS011;16786;49.466;11.068;2022-07-29T12:18:59;10.95;;;7.65;;
29916;SDS011;16786;49.466;11.068;2022-07-29T12:21:29;12.00;;;8.02;;
29916;SDS011;16786;49.466;11.068;2022-07-29T12:24:22;8.93;;;8.00;;
29916;SDS011;16786;49.466;11.068;2022-07-29T12:26:53;8.25;;;7.45;;
29916;SDS011;16786;49.466;11.068;2022-07-29T12:29:21;8.73;;;7.90;;
29916;SDS011;16786;49.466;11.068;2022-07-29T12:32:00;11.45;;;10.35;;
29916;SDS011;16786;49.466;11.068;2022-07-29T12:34:30;9.00;;;8.25;;
29916;SDS011;16786;49.466;11.068;2022-07-29T12:36:58;10.60;;;9.50;;
29916;SDS011;16786;49.466;11.068;2022-07-29T12:39:25;8.38;;;7.57;;
29916;SDS011;16786;49.466;11.068;2022-07-29T12:41:54;8.20;;;7.45;;
29916;SDS011;16786;49.466;11.068;2022-07-29T12:44:49;8.90;;;7.22;;
29916;SDS011;16786;49.466;11.068;2022-07-29T12:47:18;8.45;;;7.65;;
29916;SDS011;16786;49.466;11.068;2022-07-29T12:49:46;9.45;;;8.60;;
29916;SDS011;16786;49.466;11.068;2022-07-29T12:54:55;9.05;;;8.00;;
29916;SDS011;16786;49.466;11.068;2022-07-29T12:57:23;9.02;;;8.23;;
29916;SDS011;16786;49.466;11.068;2022-07-29T13:02:37;8.20;;;7.50;;
29916;SDS011;16786;49.466;11.068;2022-07-29T13:05:06;8.35;;;7.53;;
29916;SDS011;16786;49.466;11.068;2022-07-29T13:07:35;8.60;;;7.80;;
29916;SDS011;16786;49.466;11.068;2022-07-29T13:10:23;10.90;;;9.55;;
29916;SDS011;16786;49.466;11.068;2022-07-29T13:13:07;9.82;;;7.70;;
29916;SDS011;16786;49.466;11.068;2022-07-29T13:15:36;10.38;;;7.78;;
29916;SDS011;16786;49.466;11.068;2022-07-29T13:20:54;7.80;;;7.10;;
29916;SDS011;16786;49.466;11.068;2022-07-29T13:23:22;10.07;;;7.78;;
29916;SDS011;16786;49.466;11.068;2022-07-29T13:25:50;10.55;;;9.45;;
29916;SDS011;16786;49.466;11.068;2022-07-29T13:28:17;14.10;;;8.18;;
29916;SDS011;16786;49.466;11.068;2022-07-29T13:30:45;8.82;;;8.02;;
29916;SDS011;16786;49.466;11.068;2022-07-29T13:33:12;8.95;;;8.07;;
29916;SDS011;16786;49.466;11.068;2022-07-29T13:35:41;9.40;;;8.52;;
29916;SDS011;16786;49.466;11.068;2022-07-29T13:38:08;16.33;;;11.07;;
29916;SDS011;16786;49.466;11.068;2022-07-29T13:40:35;8.75;;;7.70;;
29916;SDS011;16786;49.466;11.068;2022-07-29T13:43:03;8.52;;;7.53;;
29916;SDS011;16786;49.466;11.068;2022-07-29T13:45:30;8.57;;;7.72;;
29916;SDS011;16786;49.466;11.068;2022-07-29T13:47:58;11.40;;;7.38;;
29916;SDS011;16786;49.466;11.068;2022-07-29T13:50:25;10.25;;;7.28;;
29916;SDS011;16786;49.466;11.068;2022-07-29T13:52:52;9.15;;;7.70;;
29916;SDS011;16786;49.466;11.068;2022-07-29T13:55:20;12.38;;;7.60;;
29916;SDS011;16786;49.466;11.068;2022-07-29T13:57:47;9.30;;;6.70;;
29916;SDS011;16786;49.466;11.068;2022-07-29T14:00:15;8.55;;;6.88;;
29916;SDS011;16786;49.466;11.068;2022-07-29T14:02:42;8.90;;;6.75;;
29916;SDS011;16786;49.466;11.068;2022-07-29T14:05:10;7.55;;;6.85;;
29916;SDS011;16786;49.466;11.068;2022-07-29T14:07:38;7.93;;;6.82;;
29916;SDS011;16786;49.466;11.068;2022-07-29T14:10:05;8.27;;;6.70;;
29916;SDS011;16786;49.466;11.068;2022-07-29T14:12:33;8.07;;;6.90;;
29916;SDS011;16786;49.466;11.068;2022-07-29T14:15:01;8.25;;;7.18;;
29916;SDS011;16786;49.466;11.068;2022-07-29T14:17:30;7.97;;;7.18;;
29916;SDS011;16786;49.466;11.068;2022-07-29T14:19:58;8.32;;;7.43;;
29916;SDS011;16786;49.466;11.068;2022-07-29T14:22:26;8.02;;;7.28;;
29916;SDS011;16786;49.466;11.068;2022-07-29T14:24:56;7.95;;;7.25;;
29916;SDS011;16786;49.466;11.068;2022-07-29T14:27:40;8.93;;;7.22;;
29916;SDS011;16786;49.466;11.068;2022-07-29T14:30:09;9.13;;;7.25;;
29916;SDS011;16786;49.466;11.068;2022-07-29T14:32:37;7.80;;;7.10;;
29916;SDS011;16786;49.466;11.068;2022-07-29T14:35:06;8.05;;;7.10;;
29916;SDS011;16786;49.466;11.068;2022-07-29T14:37:34;7.63;;;7.00;;
29916;SDS011;16786;49.466;11.068;2022-07-29T14:40:06;8.02;;;7.30;;
29916;SDS011;16786;49.466;11.068;2022-07-29T14:45:07;7.82;;;7.03;;
29916;SDS011;16786;49.466;11.068;2022-07-29T14:47:36;9.77;;;6.97;;
29916;SDS011;16786;49.466;11.068;2022-07-29T14:50:06;7.18;;;6.47;;
29916;SDS011;16786;49.466;11.068;2022-07-29T14:52:36;7.85;;;6.50;;
29916;SDS011;16786;49.466;11.068;2022-07-29T14:55:05;8.25;;;7.00;;
29916;SDS011;16786;49.466;11.068;2022-07-29T14:57:46;9.02;;;6.60;;
29916;SDS011;16786;49.466;11.068;2022-07-29T15:00:16;7.45;;;6.68;;
29916;SDS011;16786;49.466;11.068;2022-07-29T15:02:46;13.52;;;6.95;;
29916;SDS011;16786;49.466;11.068;2022-07-29T15:05:31;8.38;;;7.35;;
29916;SDS011;16786;49.466;11.068;2022-07-29T15:07:59;9.20;;;6.90;;
29916;SDS011;16786;49.466;11.068;2022-07-29T15:10:30;8.20;;;6.93;;
29916;SDS011;16786;49.466;11.068;2022-07-29T15:12:58;8.20;;;6.63;;
29916;SDS011;16786;49.466;11.068;2022-07-29T15:15:28;9.25;;;7.10;;
29916;SDS011;16786;49.466;11.068;2022-07-29T15:17:56;8.60;;;6.85;;
29916;SDS011;16786;49.466;11.068;2022-07-29T15:20:24;8.85;;;6.35;;
29916;SDS011;16786;49.466;11.068;2022-07-29T15:22:54;9.63;;;6.72;;
29916;SDS011;16786;49.466;11.068;2022-07-29T15:25:25;8.15;;;7.35;;
29916;SDS011;16786;49.466;11.068;2022-07-29T15:27:53;8.35;;;7.45;;
29916;SDS011;16786;49.466;11.068;2022-07-29T15:30:27;10.35;;;7.32;;
29916;SDS011;16786;49.466;11.068;2022-07-29T15:32:59;7.80;;;6.95;;
29916;SDS011;16786;49.466;11.068;2022-07-29T15:35:28;9.05;;;8.13;;
29916;SDS011;16786;49.466;11.068;2022-07-29T15:37:55;9.02;;;7.25;;
29916;SDS011;16786;49.466;11.068;2022-07-29T15:40:22;8.52;;;7.38;;
29916;SDS011;16786;49.466;11.068;2022-07-29T15:42:50;10.30;;;7.20;;
29916;SDS011;16786;49.466;11.068;2022-07-29T15:45:17;9.90;;;7.07;;
29916;SDS011;16786;49.466;11.068;2022-07-29T15:47:44;8.68;;;7.20;;
29916;SDS011;16786;49.466;11.068;2022-07-29T15:50:12;8.25;;;7.40;;
29916;SDS011;16786;49.466;11.068;2022-07-29T15:52:42;9.95;;;7.03;;
29916;SDS011;16786;49.466;11.068;2022-07-29T15:55:09;7.82;;;7.00;;